Time;durP1;ratioP1;P1;durP2;ratioP2;P2;SDS_P1;SDS_P2;PMS_P1;PMS_P2;Temp;Humidity;BMP_temperature;BMP_pressure;BME280_temperature;BME280_humidity;BME280_pressure;Samples;Min_cycle;Max_cycle;Signal;HPM_P1;HPM_P2
2022/06/12 00:04:22;;;;;;;12.10;10.50;;;;;;;14.08;72.52;100339.36;214000;1271;140309;-64
2022/06/12 00:09:28;;;;;;;13.30;11.00;;;;;;;14.08;72.70;100339.40;214134;1271;141400;-64
2022/06/12 00:14:34;;;;;;;14.10;12.60;;;;;;;14.05;72.47;100342.47;213325;1273;141676;-64
2022/06/12 00:19:41;;;;;;;13.90;11.90;;;;;;;13.94;72.91;100338.48;213535;1271;141669;-63
2022/06/12 00:24:46;;;;;;;16.90;12.50;;;;;;;13.91;73.18;100339.77;214851;1271;139801;-64
2022/06/12 00:29:52;;;;;;;12.50;11.20;;;;;;;13.92;73.40;100337.58;214604;1271;142029;-63
2022/06/12 00:34:58;;;;;;;11.50;10.40;;;;;;;13.95;73.54;100335.77;213483;1272;141526;-64
2022/06/12 00:40:05;;;;;;;15.40;11.80;;;;;;;13.92;73.88;100335.06;215254;1273;141338;-64
2022/06/12 00:45:40;;;;;;;13.80;12.40;;;;;;;13.88;74.24;100334.08;213543;1273;142675;-64
2022/06/12 00:51:11;;;;;;;13.30;12.00;;;;;;;13.83;74.26;100334.00;215259;1271;142525;-63
2022/06/12 00:56:21;;;;;;;14.70;12.40;;;;;;;13.83;74.67;100331.53;215018;1271;142552;-63
2022/06/12 01:01:32;;;;;;;14.80;12.20;;;;;;;13.88;75.10;100326.52;213716;1272;141705;-64
2022/06/12 01:06:37;;;;;;;13.40;11.40;;;;;;;14.00;75.28;100324.69;214928;1271;141620;-63
2022/06/12 01:11:44;;;;;;;16.60;13.10;;;;;;;14.11;75.37;100321.27;216661;1271;143307;-65
2022/06/12 01:16:50;;;;;;;13.60;12.40;;;;;;;14.23;75.43;100324.44;216470;1270;142314;-64
2022/06/12 01:22:17;;;;;;;12.50;10.60;;;;;;;14.28;75.48;100324.61;215821;1271;140813;-63
2022/06/12 01:27:59;;;;;;;15.80;12.80;;;;;;;14.21;75.27;100318.55;215255;1271;141888;-64
2022/06/12 01:33:14;;;;;;;16.10;11.80;;;;;;;14.22;75.66;100313.58;215149;1272;141170;-64
2022/06/12 01:38:31;;;;;;;14.90;11.20;;;;;;;14.34;75.90;100311.20;214322;1271;144627;-63
2022/06/12 01:44:18;;;;;;;14.20;12.70;;;;;;;14.41;75.74;100305.47;215646;1271;140622;-64
2022/06/12 01:49:50;;;;;;;13.60;12.20;;;;;;;14.49;75.91;100305.23;213877;1274;140946;-64
2022/06/12 01:55:06;;;;;;;13.10;11.30;;;;;;;14.56;75.65;100304.98;214233;1271;141172;-64
2022/06/12 02:00:20;;;;;;;16.90;11.30;;;;;;;14.52;75.57;100305.59;214214;1274;140443;-64
2022/06/12 02:05:47;;;;;;;12.10;10.90;;;;;;;14.43;75.77;100302.01;214638;1271;140470;-64
2022/06/12 02:13:11;;;;;;;12.30;10.00;;;;;;;14.44;76.04;100300.58;213333;1272;142943;-64
2022/06/12 02:16:31;;;;;;;12.80;11.60;;;;;;;14.39;76.16;100298.16;214257;1272;940864;-62
2022/06/12 02:21:53;;;;;;;14.50;12.00;;;;;;;14.44;76.34;100296.98;213541;1271;141128;-64
2022/06/12 02:27:04;;;;;;;11.80;10.60;;;;;;;14.52;76.41;100295.92;214628;1273;142588;-63
2022/06/12 02:32:32;;;;;;;13.10;11.80;;;;;;;14.58;76.34;100295.80;213350;1274;142271;-61
2022/06/12 02:37:42;;;;;;;10.70;9.70;;;;;;;14.62;76.43;100300.74;214292;1272;141134;-64
2022/06/12 02:42:50;;;;;;;10.60;9.60;;;;;;;14.57;76.15;100301.48;214683;1273;140018;-64
2022/06/12 02:47:55;;;;;;;13.30;12.00;;;;;;;14.59;76.48;100296.73;213560;1273;140001;-64
2022/06/12 02:53:32;;;;;;;15.50;11.30;;;;;;;14.68;76.80;100294.15;215586;1273;141019;-65
2022/06/12 02:58:51;;;;;;;14.00;11.70;;;;;;;14.70;76.32;100292.67;215074;1272;140262;-64
2022/06/12 03:04:01;;;;;;;;;;;;;;;14.69;76.38;100289.29;216318;1271;141452;-65
2022/06/12 03:09:06;;;;;;;14.50;10.00;;;;;;;14.71;76.62;100288.55;216942;1271;127401;-65
2022/06/12 03:14:15;;;;;;;10.90;9.90;;;;;;;14.79;76.68;100288.66;216200;1271;140689;-65
2022/06/12 03:19:30;;;;;;;11.10;9.70;;;;;;;14.94;76.46;100283.13;216096;1271;141508;-63
2022/06/12 03:24:54;;;;;;;9.70;8.80;;;;;;;15.10;76.34;100280.25;215532;1272;140651;-64
2022/06/12 03:30:02;;;;;;;10.50;8.00;;;;;;;15.28;76.24;100275.93;215676;1271;140208;-64
2022/06/12 03:35:26;;;;;;;9.00;8.10;;;;;;;15.41;75.97;100272.31;213894;1272;141184;-65
2022/06/12 03:40:56;;;;;;;11.10;10.10;;;;;;;15.56;75.89;100274.63;215491;1271;140772;-64
2022/06/12 03:46:01;;;;;;;10.90;9.70;;;;;;;15.74;76.15;100278.35;214828;1271;142979;-64
2022/06/12 03:51:22;;;;;;;10.30;9.30;;;;;;;16.02;76.20;100285.47;214775;1271;141209;-65
2022/06/12 04:02:17;;;;;;;9.60;8.80;;;;;;;16.28;75.42;100291.25;214063;1271;139539;-63
2022/06/12 04:07:24;;;;;;;9.30;8.10;;;;;;;16.35;75.27;100294.96;213572;1271;141672;-63
2022/06/12 04:12:33;;;;;;;9.40;8.10;;;;;;;16.42;75.13;100294.85;213097;1271;142227;-63
2022/06/12 04:17:40;;;;;;;11.40;10.10;;;;;;;16.50;75.06;100294.09;214076;1271;142511;-63
2022/06/12 04:22:47;;;;;;;10.20;9.00;;;;;;;16.60;74.84;100297.52;213341;1271;141792;-65
2022/06/12 04:27:52;;;;;;;9.50;8.60;;;;;;;16.77;74.92;100302.73;214359;1271;141611;-64
2022/06/12 04:33:19;;;;;;;9.20;7.90;;;;;;;16.99;74.83;100304.13;214934;1271;141772;-63
2022/06/12 04:38:30;;;;;;;9.00;8.20;;;;;;;17.11;74.41;100300.19;213262;1271;141284;-64
2022/06/12 04:43:35;;;;;;;10.70;8.20;;;;;;;17.19;74.29;100299.34;215352;1271;142231;-65
2022/06/12 04:48:42;;;;;;;14.40;9.10;;;;;;;17.29;74.32;100296.58;213423;1274;142084;-63
2022/06/12 04:53:48;;;;;;;10.10;8.90;;;;;;;17.42;74.03;100291.48;213662;1272;141524;-62
2022/06/12 04:58:52;;;;;;;10.00;9.20;;;;;;;17.55;73.85;100290.33;214905;1271;141582;-65
2022/06/12 05:03:57;;;;;;;7.50;7.00;;;;;;;17.66;73.70;100290.11;215412;1272;141362;-64
2022/06/12 05:09:03;;;;;;;7.90;7.10;;;;;;;17.76;73.54;100289.89;215759;1274;140450;-64
2022/06/12 05:14:08;;;;;;;8.40;7.70;;;;;;;17.96;73.27;100288.24;215272;1274;140725;-64
2022/06/12 05:19:16;;;;;;;9.40;8.60;;;;;;;18.18;72.90;100296.42;216080;1274;139682;-63
2022/06/12 05:24:20;;;;;;;10.70;8.20;;;;;;;18.48;72.43;100298.11;215152;1274;141500;-64
2022/06/12 05:29:30;;;;;;;10.60;8.10;;;;;;;19.00;72.14;100297.27;213942;1274;142251;-63
2022/06/12 05:34:34;;;;;;;8.50;7.70;;;;;;;19.74;71.31;100300.18;214322;1274;142021;-63
2022/06/12 05:39:41;;;;;;;9.10;7.70;;;;;;;20.80;69.82;100303.58;214209;1273;141242;-65
2022/06/12 05:44:46;;;;;;;8.70;7.00;;;;;;;21.19;69.33;100303.96;215015;1274;140776;-65
2022/06/12 05:49:50;;;;;;;8.60;7.40;;;;;;;21.60;68.67;100303.20;215096;1274;140646;-62
2022/06/12 05:54:55;;;;;;;8.60;7.90;;;;;;;22.38;68.34;100309.05;213518;1274;140112;-63
2022/06/12 06:00:00;;;;;;;7.90;6.90;;;;;;;24.19;65.61;100301.81;214667;1273;140275;-62
2022/06/12 06:05:06;;;;;;;7.40;5.80;;;;;;;26.31;62.50;100301.36;214896;1272;139225;-62
2022/06/12 06:10:20;;;;;;;5.20;4.80;;;;;;;28.10;59.27;100308.98;214796;1273;140788;-63
2022/06/12 06:15:25;;;;;;;5.00;4.20;;;;;;;29.34;56.64;100318.36;214299;1272;140379;-63
2022/06/12 06:20:33;;;;;;;5.60;4.30;;;;;;;28.59;54.41;100324.40;214673;1273;140356;-63
2022/06/12 06:25:40;;;;;;;6.10;4.70;;;;;;;28.00;53.83;100326.26;213807;1274;163261;-63
2022/06/12 06:30:45;;;;;;;4.50;4.10;;;;;;;27.78;52.86;100326.02;214232;1273;140520;-62
2022/06/12 06:35:50;;;;;;;4.70;4.20;;;;;;;27.72;52.38;100326.67;213579;1273;141816;-62
2022/06/12 06:40:56;;;;;;;5.40;4.40;;;;;;;27.74;51.60;100330.19;214435;1273;140692;-63
2022/06/12 06:46:17;;;;;;;4.70;4.30;;;;;;;27.71;51.40;100327.81;213554;1274;140334;-63
2022/06/12 06:51:23;;;;;;;11.90;4.10;;;;;;;27.60;50.78;100325.88;214927;1274;141889;-63
2022/06/12 06:56:28;;;;;;;5.00;4.60;;;;;;;27.90;50.33;100327.80;214045;1273;140635;-63
2022/06/12 07:01:34;;;;;;;4.00;3.70;;;;;;;28.04;49.36;100325.55;213813;1273;141076;-63
2022/06/12 07:06:38;;;;;;;;;;;;;;;28.06;49.49;100327.95;213672;1274;141246;-63
2022/06/12 07:11:42;;;;;;;5.40;4.40;;;;;;;27.80;48.92;100322.48;217224;1272;127633;-63
2022/06/12 07:16:47;;;;;;;5.70;4.40;;;;;;;27.89;49.73;100320.95;216438;1272;141304;-63
2022/06/12 07:21:51;;;;;;;6.40;4.30;;;;;;;28.06;48.62;100320.69;216263;1271;139583;-63
2022/06/12 07:27:03;;;;;;;4.40;4.00;;;;;;;28.17;48.80;100315.77;215483;1271;141409;-64
2022/06/12 07:32:09;;;;;;;3.40;3.20;;;;;;;28.50;48.38;100317.31;215064;1271;140670;-63
2022/06/12 07:37:13;;;;;;;4.70;4.30;;;;;;;28.47;47.89;100316.71;214795;1271;140323;-63
2022/06/12 07:42:18;;;;;;;;;;;;;;;28.71;47.97;100317.70;215821;1271;140635;-64
2022/06/12 07:47:24;;;;;;;4.80;4.40;;;;;;;28.74;47.35;100317.02;215717;1274;126885;-63
2022/06/12 07:52:29;;;;;;;5.40;4.90;;;;;;;28.58;46.92;100317.95;214698;1274;140104;-64
2022/06/12 07:57:36;;;;;;;4.60;4.00;;;;;;;28.72;46.35;100316.79;214407;1271;139942;-64
2022/06/12 08:02:42;;;;;;;6.10;4.90;;;;;;;29.14;46.52;100316.66;215478;1271;139851;-64
2022/06/12 08:07:47;;;;;;;5.50;5.00;;;;;;;29.11;46.35;100318.13;214583;1273;139894;-64
2022/06/12 08:12:51;;;;;;;5.20;4.80;;;;;;;29.30;46.03;100318.57;214324;1271;141391;-64
2022/06/12 08:17:56;;;;;;;4.70;4.30;;;;;;;29.25;45.44;100313.48;213520;1271;140972;-64
2022/06/12 08:23:26;;;;;;;5.00;4.20;;;;;;;29.56;45.62;100315.36;213069;1271;140797;-63
2022/06/12 08:28:35;;;;;;;4.60;4.30;;;;;;;29.55;45.13;100310.64;213378;1271;142028;-66
2022/06/12 08:33:42;;;;;;;7.70;4.90;;;;;;;29.63;44.58;100315.17;214492;1271;140486;-65
2022/06/12 08:38:48;;;;;;;5.20;4.60;;;;;;;29.46;44.03;100313.40;215339;1271;140555;-69
2022/06/12 08:44:05;;;;;;;6.00;4.50;;;;;;;29.56;43.36;100312.40;215173;1271;139833;-66
2022/06/12 08:49:27;;;;;;;7.40;4.50;;;;;;;29.37;43.38;100316.19;214766;1271;140861;-66
2022/06/12 08:54:43;;;;;;;4.20;3.90;;;;;;;29.35;43.48;100317.53;214304;1271;139321;-66
2022/06/12 08:59:59;;;;;;;4.90;4.50;;;;;;;29.29;43.36;100314.94;215407;1272;139468;-67
2022/06/12 09:05:08;;;;;;;5.00;4.60;;;;;;;29.16;43.59;100311.45;216313;1271;139886;-67
2022/06/12 09:10:27;;;;;;;8.30;5.00;;;;;;;29.13;43.63;100308.85;216241;1271;139807;-68
2022/06/12 09:15:44;;;;;;;4.70;4.30;;;;;;;28.92;43.94;100307.10;216025;1272;140075;-67
2022/06/12 09:20:48;;;;;;;6.90;5.50;;;;;;;29.20;44.81;100303.54;215668;1273;140644;-66
2022/06/12 09:26:19;;;;;;;8.20;5.60;;;;;;;28.93;43.87;100297.57;215579;1273;140970;-67
2022/06/12 09:31:35;;;;;;;9.40;5.00;;;;;;;28.89;44.90;100293.91;214914;1271;140305;-66
2022/06/12 09:37:01;;;;;;;5.90;5.20;;;;;;;29.13;45.29;100286.97;213930;1273;142570;-66
2022/06/12 09:42:34;;;;;;;6.00;5.60;;;;;;;28.94;44.41;100278.70;214732;1272;140512;-65
2022/06/12 09:48:06;;;;;;;6.20;5.80;;;;;;;28.93;45.02;100267.15;214902;1271;140445;-66
2022/06/12 09:53:24;;;;;;;6.90;4.00;;;;;;;29.12;45.56;100260.36;215060;1274;140602;-65
2022/06/12 09:58:52;;;;;;;7.00;4.80;;;;;;;29.30;45.20;100250.71;214848;1273;139942;-66
2022/06/12 10:04:06;;;;;;;6.70;5.80;;;;;;;29.44;44.47;100252.30;213776;1273;151525;-65
2022/06/12 10:09:15;;;;;;;4.60;4.20;;;;;;;29.56;44.31;100245.42;215211;1273;140487;-65
2022/06/12 10:14:45;;;;;;;3.90;3.70;;;;;;;29.61;44.09;100238.59;214802;1273;140509;-65
2022/06/12 10:19:57;;;;;;;4.50;4.10;;;;;;;29.71;43.74;100236.04;214853;1272;140204;-66
2022/06/12 10:25:04;;;;;;;6.80;4.30;;;;;;;29.83;43.14;100228.91;214797;1274;139852;-65
2022/06/12 10:30:32;;;;;;;3.90;3.60;;;;;;;29.96;43.27;100219.98;214789;1273;140864;-64
2022/06/12 10:35:47;;;;;;;4.40;4.10;;;;;;;29.95;42.96;100215.09;213619;1273;139844;-65
2022/06/12 10:41:00;;;;;;;4.60;4.20;;;;;;;29.97;42.77;100212.23;214465;1273;140223;-64
2022/06/12 10:46:17;;;;;;;4.40;4.00;;;;;;;29.93;42.77;100208.30;214696;1274;139770;-68
2022/06/12 10:51:29;;;;;;;6.30;3.80;;;;;;;29.87;42.39;100204.27;214965;1273;140322;-66
2022/06/12 10:56:53;;;;;;;4.90;4.50;;;;;;;29.86;41.46;100197.48;214670;1273;139817;-71
2022/06/12 11:02:07;;;;;;;5.50;3.80;;;;;;;30.09;41.90;100193.57;216101;1274;140060;-69
2022/06/12 11:07:36;;;;;;;4.30;3.90;;;;;;;30.00;41.03;100191.42;215483;1274;140285;-64
2022/06/12 11:13:03;;;;;;;3.90;3.50;;;;;;;29.87;40.63;100192.80;215629;1274;141324;-64
2022/06/12 11:18:44;;;;;;;3.50;3.30;;;;;;;29.77;40.43;100186.65;215585;1274;139456;-67
2022/06/12 11:23:48;;;;;;;3.90;3.60;;;;;;;29.77;40.19;100175.84;215980;1274;139985;-67
2022/06/12 11:29:15;;;;;;;3.60;3.30;;;;;;;29.72;40.20;100176.71;215288;1274;139693;-67
2022/06/12 11:34:45;;;;;;;2.90;2.80;;;;;;;29.75;40.08;100170.45;214585;1274;140159;-67
2022/06/12 11:40:18;;;;;;;3.40;2.90;;;;;;;29.63;39.49;100166.59;214276;1274;140456;-66
2022/06/12 11:45:41;;;;;;;4.10;3.50;;;;;;;29.57;40.03;100159.52;214466;1274;151388;-65
2022/06/12 11:50:58;;;;;;;3.90;3.40;;;;;;;29.50;40.31;100160.82;214209;1274;140448;-64
2022/06/12 11:56:24;;;;;;;3.80;3.60;;;;;;;29.40;40.22;100156.77;214769;1274;140934;-64
2022/06/12 12:01:31;;;;;;;4.30;3.20;;;;;;;29.50;40.52;100145.52;214512;1274;140449;-65
2022/06/12 12:07:09;;;;;;;4.60;3.80;;;;;;;29.43;40.43;100147.10;214131;1273;140193;-64
2022/06/12 12:12:19;;;;;;;3.90;3.60;;;;;;;28.92;40.91;100147.14;214429;1274;139491;-62
2022/06/12 12:17:31;;;;;;;4.10;3.50;;;;;;;28.45;41.06;100150.33;213884;1274;144295;-64
2022/06/12 12:22:46;;;;;;;4.10;3.70;;;;;;;28.56;41.44;100143.38;215585;1273;139483;-65
2022/06/12 12:27:56;;;;;;;5.80;3.60;;;;;;;28.83;41.82;100138.48;214024;1273;140409;-67
2022/06/12 12:33:03;;;;;;;5.70;3.30;;;;;;;28.94;41.54;100137.64;213684;1274;140421;-66
2022/06/12 12:43:34;;;;;;;4.80;3.70;;;;;;;29.02;41.98;100134.59;213543;1274;141224;-66
2022/06/12 12:48:45;;;;;;;3.00;2.90;;;;;;;29.10;41.77;100135.02;214823;1273;143535;-64
2022/06/12 12:54:05;;;;;;;4.30;3.40;;;;;;;29.18;41.40;100133.54;216222;1271;141365;-66
2022/06/12 12:59:11;;;;;;;5.70;3.70;;;;;;;29.13;40.30;100131.05;216374;1271;140082;-66
2022/06/12 13:04:23;;;;;;;;;;;;;;;29.01;40.11;100130.55;216033;1273;140024;-66
2022/06/12 13:10:00;;;;;;;3.80;3.50;;;;;;;28.81;40.17;100119.93;217019;1272;126144;-68
2022/06/12 13:15:22;;;;;;;3.50;3.30;;;;;;;28.75;40.66;100112.60;215950;1272;140327;-67
2022/06/12 13:20:48;;;;;;;3.90;3.50;;;;;;;28.79;40.61;100107.69;215614;1273;140554;-67
2022/06/12 13:25:55;;;;;;;3.40;3.10;;;;;;;28.73;40.65;100111.59;215272;1273;141300;-67
2022/06/12 13:31:04;;;;;;;5.10;3.50;;;;;;;28.65;40.11;100111.54;215370;1274;140295;-66
2022/06/12 13:36:15;;;;;;;5.60;2.70;;;;;;;28.47;39.30;100103.29;215856;1272;140763;-66
2022/06/12 13:41:41;;;;;;;4.60;2.90;;;;;;;28.30;39.63;100105.05;213487;1274;141635;-65
2022/06/12 13:46:47;;;;;;;2.50;2.40;;;;;;;28.28;38.65;100095.59;213567;1274;140670;-65
2022/06/12 13:51:57;;;;;;;2.50;2.40;;;;;;;28.27;38.86;100088.27;215678;1274;140569;-65
2022/06/12 13:57:12;;;;;;;6.00;2.10;;;;;;;28.27;38.40;100082.71;214260;1273;141402;-65
2022/06/12 14:02:26;;;;;;;3.00;2.60;;;;;;;28.26;38.35;100078.44;214646;1272;140631;-66
2022/06/12 14:07:34;;;;;;;2.10;2.00;;;;;;;28.20;38.09;100069.46;214298;1273;140113;-63
2022/06/12 14:12:38;;;;;;;1.50;1.50;;;;;;;28.19;37.29;100064.73;214707;1273;139618;-64
2022/06/12 14:17:51;;;;;;;2.40;2.20;;;;;;;28.25;37.37;100060.87;214579;1273;673066;-65
2022/06/12 14:23:00;;;;;;;3.60;2.30;;;;;;;28.17;37.55;100058.40;215516;1273;140306;-66
2022/06/12 14:28:23;;;;;;;3.00;1.90;;;;;;;27.99;37.10;100056.60;214251;1274;140720;-67
2022/06/12 14:33:40;;;;;;;2.00;1.90;;;;;;;27.81;36.15;100056.55;213844;1273;140327;-66
2022/06/12 14:38:45;;;;;;;2.30;2.10;;;;;;;27.76;36.58;100055.17;214025;1272;140804;-66
2022/06/12 14:43:55;;;;;;;12.50;2.30;;;;;;;27.81;36.75;100053.20;215555;1273;141220;-63
2022/06/12 14:49:00;;;;;;;2.60;2.40;;;;;;;27.75;37.12;100050.48;213347;1274;140826;-66
2022/06/12 14:54:12;;;;;;;2.40;2.20;;;;;;;27.54;36.75;100044.38;214280;1274;141211;-64
2022/06/12 14:59:27;;;;;;;12.40;3.40;;;;;;;27.40;37.24;100036.40;216343;1271;141182;-66
2022/06/12 15:04:31;;;;;;;2.40;2.20;;;;;;;27.28;37.60;100028.33;215963;1272;140539;-66
2022/06/12 15:09:38;;;;;;;4.00;2.60;;;;;;;26.99;38.19;100023.69;216352;1273;140553;-66
2022/06/12 15:14:43;;;;;;;2.50;2.40;;;;;;;26.94;38.64;100015.14;215851;1271;139262;-67
2022/06/12 15:19:51;;;;;;;2.50;2.40;;;;;;;27.07;38.82;100010.08;215386;1271;140121;-65
2022/06/12 15:24:58;;;;;;;2.00;1.90;;;;;;;27.13;39.24;100000.23;215681;1273;140810;-64
2022/06/12 15:30:03;;;;;;;2.90;2.60;;;;;;;27.24;39.06;99994.55;215295;1271;140881;-67
2022/06/12 15:35:25;;;;;;;2.60;2.50;;;;;;;27.33;38.75;99989.85;214679;1273;140236;-68
2022/06/12 15:40:30;;;;;;;2.80;2.60;;;;;;;27.34;37.62;99982.78;215228;1272;140207;-65
2022/06/12 15:45:35;;;;;;;2.50;2.40;;;;;;;27.32;37.43;99981.42;214056;1271;140862;-66
2022/06/12 15:50:39;;;;;;;2.50;2.40;;;;;;;27.29;37.69;99978.69;213774;1271;140695;-66
2022/06/12 15:55:44;;;;;;;;;;;;;;;27.20;37.93;99968.46;214712;1271;140583;-66
2022/06/12 16:00:54;;;;;;;2.90;2.60;;;;;;;27.10;38.30;99964.08;214595;1271;127563;-65
2022/06/12 16:06:04;;;;;;;2.80;2.50;;;;;;;27.07;37.97;99954.99;214960;1271;140009;-67
2022/06/12 16:11:10;;;;;;;4.40;2.90;;;;;;;27.05;38.16;99953.27;213672;1274;139806;-64
2022/06/12 16:16:17;;;;;;;3.00;2.60;;;;;;;26.97;38.88;99946.79;214972;1271;139692;-64
2022/06/12 16:21:21;;;;;;;13.60;3.00;;;;;;;26.84;39.10;99935.79;215794;1272;140087;-63
2022/06/12 16:26:25;;;;;;;2.80;2.60;;;;;;;26.77;38.88;99923.44;213527;1271;140655;-63
2022/06/12 16:31:29;;;;;;;3.20;2.80;;;;;;;26.77;38.84;99920.92;214645;1271;139512;-65
2022/06/12 16:36:39;;;;;;;3.10;2.90;;;;;;;26.76;39.29;99915.19;214891;1273;139954;-66
2022/06/12 16:41:49;;;;;;;2.50;2.40;;;;;;;26.73;39.56;99902.73;216351;1272;140069;-66
2022/06/12 16:46:58;;;;;;;2.90;2.70;;;;;;;26.64;40.02;99900.08;214482;1271;140502;-65
2022/06/12 16:52:14;;;;;;;2.60;2.40;;;;;;;26.57;39.90;99900.38;215704;1272;140296;-65
2022/06/12 16:57:23;;;;;;;5.00;3.10;;;;;;;26.45;40.15;99902.56;216308;1271;142033;-65
2022/06/12 17:02:33;;;;;;;3.30;3.10;;;;;;;26.34;41.31;99907.61;216218;1272;141476;-65
2022/06/12 17:07:41;;;;;;;3.60;2.90;;;;;;;26.21;41.85;99905.88;216282;1271;140433;-66
2022/06/12 17:12:46;;;;;;;3.00;2.60;;;;;;;26.06;42.17;99912.81;216265;1271;140032;-66
2022/06/12 17:23:18;;;;;;;3.10;2.90;;;;;;;25.60;43.36;99906.34;214691;1271;140596;-64
2022/06/12 17:28:23;;;;;;;11.30;3.20;;;;;;;25.30;44.75;99903.56;214875;1271;140029;-63
2022/06/12 17:33:29;;;;;;;;;;;;;;;25.00;45.15;99899.45;214980;1271;140805;-64
2022/06/12 17:38:38;;;;;;;3.20;3.00;;;;;;;24.68;45.81;99902.48;214744;1271;127638;-65
2022/06/12 17:43:46;;;;;;;5.10;2.50;;;;;;;24.53;46.95;99898.05;214585;1271;142389;-63
2022/06/12 17:48:55;;;;;;;3.60;3.30;;;;;;;24.33;48.09;99891.92;214462;1271;139430;-63
2022/06/12 17:54:00;;;;;;;3.80;3.50;;;;;;;24.19;49.71;99890.33;214207;1271;140289;-64
2022/06/12 17:59:07;;;;;;;3.90;3.60;;;;;;;24.14;51.16;99883.35;213979;1271;140113;-65
2022/06/12 18:04:14;;;;;;;3.80;3.60;;;;;;;24.04;51.17;99878.74;214833;1271;140805;-63
2022/06/12 18:09:19;;;;;;;3.70;3.40;;;;;;;23.86;51.27;99881.20;214030;1271;139477;-64
2022/06/12 18:19:01;;;;;;;4.80;4.10;;;;;;;23.68;52.10;99877.21;213930;1271;141315;-64
2022/06/12 18:19:48;;;;;;;3.70;3.40;;;;;;;23.46;51.99;99874.91;214909;1271;139166;-64
2022/06/12 18:24:53;;;;;;;4.60;3.90;;;;;;;23.25;52.32;99879.41;215332;1271;141725;-64
2022/06/12 18:29:59;;;;;;;5.50;3.90;;;;;;;23.04;52.69;99878.21;215516;1272;140989;-66
2022/06/12 18:35:08;;;;;;;4.80;4.40;;;;;;;22.76;53.01;99866.95;216300;1271;139219;-64
2022/06/12 18:40:15;;;;;;;3.40;3.20;;;;;;;22.54;53.80;99868.11;216379;1271;140107;-64
2022/06/12 18:45:20;;;;;;;4.50;4.00;;;;;;;22.34;54.49;99868.70;215393;1271;140386;-64
2022/06/12 18:50:31;;;;;;;4.80;4.40;;;;;;;22.14;54.87;99868.71;215015;1271;141561;-64
2022/06/12 18:55:37;;;;;;;4.00;3.80;;;;;;;21.89;55.25;99871.17;216043;1274;140621;-64
2022/06/12 19:00:45;;;;;;;5.30;4.80;;;;;;;21.63;55.56;99868.92;215031;1273;141869;-62
2022/06/12 19:05:51;;;;;;;8.60;4.70;;;;;;;21.39;56.23;99875.27;216188;1273;140877;-63
2022/06/12 19:10:56;;;;;;;5.00;4.60;;;;;;;21.14;56.94;99876.70;215575;1273;140391;-64
2022/06/12 19:16:04;;;;;;;4.00;3.70;;;;;;;20.85;57.59;99881.52;215766;1271;141261;-64
2022/06/12 19:21:09;;;;;;;5.00;4.70;;;;;;;20.67;58.06;99884.92;215671;1271;140036;-63
2022/06/12 19:26:15;;;;;;;4.30;4.10;;;;;;;20.53;58.25;99887.45;214481;1271;140432;-64
2022/06/12 19:31:20;;;;;;;7.20;5.50;;;;;;;20.36;58.69;99891.99;214258;1273;140400;-63
2022/06/12 19:36:29;;;;;;;5.50;4.90;;;;;;;20.09;58.96;99891.80;213638;1274;140869;-65
2022/06/12 19:41:56;;;;;;;5.00;4.60;;;;;;;19.74;59.39;99889.27;213904;1271;140872;-64
2022/06/12 19:47:06;;;;;;;7.40;4.40;;;;;;;19.48;60.01;99889.55;213521;1271;140554;-64
2022/06/12 19:52:11;;;;;;;6.20;4.40;;;;;;;19.36;60.36;99882.65;214543;1271;140680;-64
2022/06/12 19:57:17;;;;;;;5.80;5.30;;;;;;;19.30;60.74;99881.58;214514;1271;142322;-64
2022/06/12 20:02:22;;;;;;;6.60;5.10;;;;;;;19.21;61.01;99877.11;214446;1271;139934;-65
2022/06/12 20:07:27;;;;;;;9.30;4.40;;;;;;;19.08;60.93;99872.33;214832;1271;140671;-64
2022/06/12 20:12:33;;;;;;;5.70;5.10;;;;;;;18.79;61.25;99863.73;213210;1274;141324;-65
2022/06/12 20:17:38;;;;;;;6.30;5.60;;;;;;;18.45;61.83;99862.66;214447;1271;140619;-64
2022/06/12 20:22:43;;;;;;;9.10;5.20;;;;;;;18.31;62.53;99856.70;214905;1271;139969;-63
2022/06/12 20:27:48;;;;;;;;;;;;;;;18.27;62.86;99853.98;213199;1271;140905;-63
2022/06/12 20:32:56;;;;;;;6.40;5.80;;;;;;;18.15;63.22;99854.38;215559;1271;126913;-64
2022/06/12 20:38:01;;;;;;;10.80;6.20;;;;;;;18.19;63.43;99855.01;214029;1271;141759;-63
2022/06/12 20:43:06;;;;;;;7.20;6.50;;;;;;;18.25;63.49;99856.73;213470;1271;141592;-63
2022/06/12 20:48:11;;;;;;;14.10;8.00;;;;;;;18.31;62.96;99854.00;216602;1271;141264;-64
2022/06/12 20:53:16;;;;;;;9.10;6.60;;;;;;;18.35;62.95;99851.73;216475;1271;140550;-64
2022/06/12 20:58:22;;;;;;;7.20;6.50;;;;;;;18.39;62.68;99846.84;216460;1271;139953;-64
2022/06/12 21:03:27;;;;;;;7.30;6.50;;;;;;;18.41;62.51;99849.63;216467;1272;139488;-64
2022/06/12 21:08:32;;;;;;;7.60;6.90;;;;;;;18.43;62.64;99845.95;216522;1271;141011;-65
2022/06/12 21:13:37;;;;;;;9.40;8.10;;;;;;;18.37;62.79;99842.27;214434;1271;140305;-62
2022/06/12 21:18:43;;;;;;;9.60;6.70;;;;;;;18.31;62.76;99838.83;214006;1271;140054;-62
2022/06/12 21:23:48;;;;;;;11.10;7.20;;;;;;;18.24;62.49;99832.46;215546;1271;141120;-64
2022/06/12 21:28:52;;;;;;;7.90;7.10;;;;;;;18.25;62.96;99835.80;215289;1271;141212;-64
2022/06/12 21:33:57;;;;;;;7.40;6.70;;;;;;;18.25;63.05;99827.55;214717;1271;139591;-64
2022/06/12 21:39:02;;;;;;;10.70;7.00;;;;;;;18.18;62.81;99823.82;214068;1271;139668;-64
2022/06/12 21:44:07;;;;;;;10.60;6.30;;;;;;;18.09;62.73;99815.26;214261;1272;139495;-62
2022/06/12 21:49:11;;;;;;;9.00;5.90;;;;;;;18.01;62.98;99819.81;213493;1272;143792;-64
2022/06/12 21:54:33;;;;;;;7.50;6.90;;;;;;;17.98;63.04;99816.05;214785;1274;141673;-65
2022/06/12 21:59:41;;;;;;;9.10;6.50;;;;;;;17.99;63.22;99817.99;213740;1271;141152;-65
2022/06/12 22:04:46;;;;;;;12.30;6.70;;;;;;;17.96;63.63;99814.83;214585;1271;140152;-68
2022/06/12 22:09:51;;;;;;;6.60;6.10;;;;;;;17.95;63.98;99812.46;214187;1271;141618;-64
2022/06/12 22:14:56;;;;;;;7.00;6.30;;;;;;;17.90;64.13;99797.23;215126;1271;139267;-63
2022/06/12 22:20:01;;;;;;;7.90;6.80;;;;;;;17.86;64.55;99789.48;214624;1271;140144;-65
2022/06/12 22:25:07;;;;;;;9.60;8.30;;;;;;;17.92;65.16;99780.66;214098;1274;140218;-64
2022/06/12 22:30:13;;;;;;;9.00;7.70;;;;;;;18.04;65.53;99781.64;214355;1271;140153;-63
2022/06/12 22:35:18;;;;;;;7.00;6.30;;;;;;;18.18;65.57;99779.85;213657;1271;140198;-63
2022/06/12 22:40:23;;;;;;;10.10;9.20;;;;;;;18.31;65.72;99770.62;214996;1271;140071;-63
2022/06/12 22:45:28;;;;;;;8.70;8.00;;;;;;;18.41;65.59;99772.66;216372;1271;140967;-63
2022/06/12 22:50:33;;;;;;;10.10;9.20;;;;;;;18.47;65.31;99782.38;216398;1271;140304;-62
2022/06/12 22:55:38;;;;;;;7.40;6.80;;;;;;;18.51;65.10;99785.41;215545;1272;140776;-63
2022/06/12 23:00:42;;;;;;;9.10;8.40;;;;;;;18.48;65.11;99777.55;215973;1272;141095;-63
2022/06/12 23:05:47;;;;;;;10.00;9.00;;;;;;;18.44;65.03;99774.79;215347;1273;141021;-63
2022/06/12 23:10:51;;;;;;;9.50;8.70;;;;;;;18.38;65.04;99766.64;215323;1273;139516;-63
2022/06/12 23:15:57;;;;;;;9.00;8.20;;;;;;;18.31;65.06;99761.86;214326;1272;140081;-63
2022/06/12 23:21:22;;;;;;;9.10;8.10;;;;;;;18.26;65.11;99759.05;214516;1271;140120;-64
2022/06/12 23:26:27;;;;;;;9.30;8.60;;;;;;;18.21;65.27;99759.42;214992;1271;140369;-64
2022/06/12 23:31:34;;;;;;;10.00;8.70;;;;;;;18.14;65.26;99755.20;213530;1274;139412;-62
2022/06/12 23:36:39;;;;;;;10.70;9.30;;;;;;;18.06;65.51;99763.11;214551;1271;140326;-63
2022/06/12 23:41:43;;;;;;;9.40;8.50;;;;;;;17.97;65.57;99763.04;214868;1271;140646;-64
2022/06/12 23:46:57;;;;;;;10.30;9.30;;;;;;;17.91;65.79;99772.47;215128;1272;141719;-63
2022/06/12 23:52:02;;;;;;;9.70;8.40;;;;;;;17.84;66.03;99776.18;214359;1271;141082;-64
2022/06/12 23:57:06;;;;;;;9.60;8.70;;;;;;;17.75;66.14;99776.31;214198;1272;140300;-64
